createdAt,value
2022-09-15T00:00:18.691Z,10.78
2022-09-15T00:00:51.379Z,10.81
2022-09-15T00:01:23.628Z,10.81
2022-09-15T00:01:55.381Z,10.87
2022-09-15T00:02:28.096Z,10.89
2022-09-15T00:02:59.938Z,10.89
2022-09-15T00:03:31.719Z,10.90
2022-09-15T00:04:03.953Z,10.91
2022-09-15T00:04:36.713Z,10.90
2022-09-15T00:05:08.955Z,10.95
2022-09-15T00:05:40.729Z,11.01
2022-09-15T00:06:12.769Z,11.03
2022-09-15T00:06:44.669Z,11.07
2022-09-15T00:07:16.408Z,11.09
2022-09-15T00:07:48.487Z,11.08
2022-09-15T00:08:20.259Z,11.11
2022-09-15T00:08:51.932Z,11.16
2022-09-15T00:09:23.711Z,11.22
2022-09-15T00:09:55.315Z,11.28
2022-09-15T00:10:28.863Z,11.29
2022-09-15T00:11:03.384Z,11.27
2022-09-15T00:11:37.263Z,11.26
2022-09-15T00:12:09.029Z,11.27
2022-09-15T00:12:40.685Z,11.31
2022-09-15T00:13:12.369Z,11.36
2022-09-15T00:13:44.960Z,11.36
2022-09-15T00:14:16.591Z,11.38
2022-09-15T00:14:48.296Z,11.35
2022-09-15T00:15:20.583Z,11.36
2022-09-15T00:15:52.725Z,11.39
2022-09-15T00:16:26.051Z,11.41
2022-09-15T00:16:57.831Z,11.48
2022-09-15T00:17:29.770Z,11.51
2022-09-15T00:18:01.617Z,11.51
2022-09-15T00:18:34.020Z,11.51
2022-09-15T00:19:06.784Z,11.53
2022-09-15T00:19:38.493Z,11.56
2022-09-15T00:20:10.689Z,11.56
2022-09-15T00:20:43.745Z,11.57
2022-09-15T00:21:18.375Z,11.59
2022-09-15T00:21:50.027Z,11.60
2022-09-15T00:22:22.015Z,11.61
2022-09-15T00:22:53.676Z,11.69
2022-09-15T00:23:25.384Z,11.68
2022-09-15T00:23:57.409Z,11.67
2022-09-15T00:24:29.186Z,11.74
2022-09-15T00:25:00.947Z,11.71
2022-09-15T00:25:32.565Z,11.75
2022-09-15T00:26:10.198Z,11.72
2022-09-15T00:26:41.940Z,11.79
2022-09-15T00:27:15.830Z,11.87
2022-09-15T00:27:47.762Z,11.84
2022-09-15T00:28:21.850Z,11.81
2022-09-15T00:28:53.828Z,11.89
2022-09-15T00:29:25.541Z,11.91
2022-09-15T00:29:57.254Z,11.88
2022-09-15T00:30:28.956Z,11.95
2022-09-15T00:31:00.735Z,11.95
2022-09-15T00:31:32.753Z,11.94
2022-09-15T00:32:04.480Z,11.96
2022-09-15T00:32:36.121Z,11.98
2022-09-15T00:33:07.779Z,11.98
2022-09-15T00:33:39.793Z,12.02
2022-09-15T00:34:13.038Z,11.98
2022-09-15T00:34:44.738Z,11.97
2022-09-15T00:35:16.484Z,11.99
2022-09-15T00:35:49.564Z,12.00
2022-09-15T00:36:22.706Z,12.03
2022-09-15T00:36:54.376Z,12.10
2022-09-15T00:37:26.274Z,12.12
2022-09-15T00:37:57.965Z,12.09
2022-09-15T00:38:31.163Z,12.13
2022-09-15T00:39:03.228Z,12.10
2022-09-15T00:39:35.101Z,12.14
2022-09-15T00:40:07.145Z,12.16
2022-09-15T00:40:46.038Z,12.20
2022-09-15T00:41:19.835Z,12.20
2022-09-15T00:41:51.823Z,12.24
2022-09-15T00:42:23.798Z,12.21
2022-09-15T00:42:55.417Z,12.21
2022-09-15T00:43:58.887Z,12.26
2022-09-15T00:44:36.703Z,12.25
2022-09-15T00:45:15.173Z,12.26
2022-09-15T00:45:47.760Z,12.29
2022-09-15T00:46:35.134Z,12.29
2022-09-15T00:47:19.289Z,12.29
2022-09-15T00:47:52.042Z,12.31
2022-09-15T00:48:23.764Z,12.28
2022-09-15T00:49:03.740Z,12.31
2022-09-15T00:49:37.386Z,12.22
2022-09-15T00:50:12.678Z,12.26
2022-09-15T00:50:47.570Z,12.29
2022-09-15T00:51:25.515Z,12.34
2022-09-15T00:52:07.412Z,12.37
2022-09-15T00:52:46.479Z,12.42
2022-09-15T00:53:19.197Z,12.38
2022-09-15T00:53:51.374Z,12.32
2022-09-15T00:54:30.422Z,12.36
2022-09-15T00:55:35.274Z,12.36
2022-09-15T00:56:07.867Z,12.39
2022-09-15T00:56:41.204Z,12.40
2022-09-15T00:57:21.345Z,12.43
2022-09-15T00:57:56.640Z,12.41
2022-09-15T00:58:34.984Z,12.41
2022-09-15T00:59:11.286Z,12.44
2022-09-15T00:59:43.787Z,12.41
2022-09-15T01:00:18.317Z,12.37
2022-09-15T01:00:56.657Z,12.36
2022-09-15T01:01:29.305Z,12.33
2022-09-15T01:02:14.952Z,12.35
2022-09-15T01:02:47.389Z,12.36
2022-09-15T01:03:19.749Z,12.32
2022-09-15T01:03:51.466Z,12.32
2022-09-15T01:04:23.077Z,12.30
2022-09-15T01:04:58.489Z,12.30
2022-09-15T01:05:38.419Z,12.38
2022-09-15T01:06:18.626Z,12.34
2022-09-15T01:06:57.587Z,12.32
2022-09-15T01:07:41.508Z,12.32
2022-09-15T01:08:33.360Z,12.32
2022-09-15T01:09:08.829Z,12.33
2022-09-15T01:09:46.307Z,12.29
2022-09-15T01:10:23.459Z,12.32
2022-09-15T01:10:56.436Z,12.31
2022-09-15T01:11:28.336Z,12.30
2022-09-15T01:12:00.217Z,12.37
2022-09-15T01:12:32.035Z,12.36
2022-09-15T01:13:12.585Z,12.42
2022-09-15T01:13:44.658Z,12.37
2022-09-15T01:14:16.478Z,12.33
2022-09-15T01:14:48.092Z,12.36
2022-09-15T01:15:21.709Z,12.40
2022-09-15T01:16:31.595Z,12.32
2022-09-15T01:17:09.326Z,12.28
2022-09-15T01:17:45.297Z,12.27
2022-09-15T01:18:20.591Z,12.26
2022-09-15T01:19:23.073Z,12.25
2022-09-15T01:20:28.457Z,12.37
2022-09-15T01:21:31.608Z,12.29
2022-09-15T01:22:37.781Z,12.32
2022-09-15T01:23:33.475Z,12.32
2022-09-15T01:24:14.212Z,12.31
2022-09-15T01:24:52.681Z,12.34
2022-09-15T01:25:59.862Z,12.31
2022-09-15T01:26:34.526Z,12.34
2022-09-15T01:27:30.883Z,12.35
2022-09-15T01:28:25.021Z,12.31
2022-09-15T01:29:07.389Z,12.34
2022-09-15T01:30:03.424Z,12.35
2022-09-15T01:30:41.226Z,12.41
2022-09-15T01:31:58.417Z,12.45
2022-09-15T01:32:51.369Z,12.45
2022-09-15T01:33:29.181Z,12.43
2022-09-15T01:34:12.768Z,12.43
2022-09-15T01:34:52.462Z,12.41
2022-09-15T01:35:48.741Z,12.40
2022-09-15T01:36:25.656Z,12.38
2022-09-15T01:37:02.801Z,12.40
2022-09-15T01:37:38.782Z,12.43
2022-09-15T01:38:28.647Z,12.46
2022-09-15T01:39:05.097Z,12.50
2022-09-15T01:39:40.527Z,12.47
2022-09-15T01:40:14.118Z,12.47
2022-09-15T01:41:08.096Z,12.46
2022-09-15T01:41:46.757Z,12.48
2022-09-15T01:42:18.805Z,12.46
2022-09-15T01:42:51.440Z,12.43
2022-09-15T01:43:24.929Z,12.40
2022-09-15T01:44:06.789Z,12.46
2022-09-15T01:44:42.835Z,12.44
2022-09-15T01:45:20.145Z,12.43
2022-09-15T01:45:52.876Z,12.44
2022-09-15T01:46:26.689Z,12.44
2022-09-15T01:47:01.572Z,12.43
2022-09-15T01:47:34.654Z,12.40
2022-09-15T01:48:07.247Z,12.36
2022-09-15T01:48:39.911Z,12.36
2022-09-15T01:49:16.898Z,12.35
2022-09-15T01:49:58.127Z,12.35
2022-09-15T01:50:34.265Z,12.38
2022-09-15T01:51:06.498Z,12.42
2022-09-15T01:51:39.554Z,12.42
2022-09-15T01:52:11.261Z,12.36
2022-09-15T01:52:45.245Z,12.34
2022-09-15T01:53:19.375Z,12.36
2022-09-15T01:53:53.226Z,12.31
2022-09-15T01:54:30.884Z,12.35
2022-09-15T01:55:09.095Z,12.36
2022-09-15T01:55:45.030Z,12.35
2022-09-15T01:56:16.868Z,12.35
2022-09-15T01:56:48.480Z,12.34
2022-09-15T01:57:21.534Z,12.28
2022-09-15T01:57:53.311Z,12.27
2022-09-15T01:58:24.937Z,12.26
2022-09-15T01:58:56.620Z,12.25
2022-09-15T01:59:31.199Z,12.22
2022-09-15T02:00:04.268Z,12.22
2022-09-15T02:00:41.982Z,12.23
2022-09-15T02:01:20.030Z,12.17
2022-09-15T02:02:01.964Z,12.13
2022-09-15T02:02:40.775Z,12.12
2022-09-15T02:03:20.339Z,12.11
2022-09-15T02:04:18.032Z,12.05
2022-09-15T02:04:53.309Z,12.01
2022-09-15T02:05:33.804Z,11.96
2022-09-15T02:06:14.670Z,11.94
2022-09-15T02:06:59.613Z,11.88
2022-09-15T02:07:45.117Z,11.92
2022-09-15T02:08:31.501Z,11.93
2022-09-15T02:09:09.212Z,11.88
2022-09-15T02:09:50.565Z,11.85
2022-09-15T02:10:30.981Z,11.86
2022-09-15T02:11:18.385Z,11.81
2022-09-15T02:11:56.503Z,11.83
2022-09-15T02:12:35.475Z,11.80
2022-09-15T02:13:17.133Z,11.75
2022-09-15T02:14:11.592Z,11.73
2022-09-15T02:15:08.759Z,11.73
2022-09-15T02:15:48.493Z,11.71
2022-09-15T02:16:25.286Z,11.80
2022-09-15T02:16:58.075Z,11.72
2022-09-15T02:17:32.720Z,11.76
2022-09-15T02:18:06.161Z,11.67
2022-09-15T02:18:48.017Z,11.68
2022-09-15T02:19:41.850Z,11.68
2022-09-15T02:20:25.476Z,11.64
2022-09-15T02:21:12.743Z,11.60
2022-09-15T02:22:02.920Z,11.59
2022-09-15T02:22:37.861Z,11.54
2022-09-15T02:23:25.666Z,11.46
2022-09-15T02:24:05.352Z,11.50
2022-09-15T02:24:41.136Z,11.44
2022-09-15T02:25:17.850Z,11.43
2022-09-15T02:25:53.377Z,11.46
2022-09-15T02:26:26.933Z,11.50
2022-09-15T02:26:59.741Z,11.48
2022-09-15T02:27:35.117Z,11.46
2022-09-15T02:28:09.008Z,11.46
2022-09-15T02:28:41.807Z,11.52
2022-09-15T02:29:16.957Z,11.54
2022-09-15T02:29:49.066Z,11.52
2022-09-15T02:30:21.513Z,11.58
2022-09-15T02:30:54.295Z,11.55
2022-09-15T02:31:27.298Z,11.61
2022-09-15T02:32:02.646Z,11.58
2022-09-15T02:32:40.877Z,11.56
2022-09-15T02:33:16.913Z,11.58
2022-09-15T02:33:55.553Z,11.57
2022-09-15T02:34:32.759Z,11.60
2022-09-15T02:35:06.998Z,11.69
2022-09-15T02:35:39.434Z,11.71
2022-09-15T02:36:13.921Z,11.69
2022-09-15T02:36:46.890Z,11.70
2022-09-15T02:37:21.416Z,11.74
2022-09-15T02:37:53.293Z,11.73
2022-09-15T02:38:26.755Z,11.75
2022-09-15T02:39:04.149Z,11.73
2022-09-15T02:39:39.071Z,11.77
2022-09-15T02:40:11.671Z,11.80
2022-09-15T02:40:44.501Z,11.81
2022-09-15T02:41:16.268Z,11.80
2022-09-15T02:41:51.522Z,11.80
2022-09-15T02:42:28.149Z,11.84
2022-09-15T02:43:01.887Z,11.86
2022-09-15T02:43:34.193Z,11.91
2022-09-15T02:44:06.024Z,11.88
2022-09-15T02:44:38.005Z,11.88
2022-09-15T02:45:09.947Z,11.94
2022-09-15T02:45:41.856Z,11.97
2022-09-15T02:46:15.905Z,11.95
2022-09-15T02:46:47.790Z,11.94
2022-09-15T02:47:19.781Z,11.93
2022-09-15T02:47:51.602Z,12.00
2022-09-15T02:48:25.353Z,11.97
2022-09-15T02:49:00.008Z,11.98
2022-09-15T02:49:31.739Z,12.00
2022-09-15T02:50:03.963Z,12.01
2022-09-15T02:50:36.783Z,12.06
2022-09-15T02:51:08.577Z,12.03
2022-09-15T02:51:40.464Z,12.06
2022-09-15T02:52:12.640Z,12.05
2022-09-15T02:52:44.457Z,12.07
2022-09-15T02:53:16.189Z,12.06
2022-09-15T02:53:47.985Z,12.10
2022-09-15T02:54:19.923Z,12.08
2022-09-15T02:54:54.447Z,12.10
2022-09-15T02:55:29.432Z,12.14
2022-09-15T02:56:01.271Z,12.16
2022-09-15T02:56:36.063Z,12.22
2022-09-15T02:57:07.688Z,12.20
2022-09-15T02:57:39.583Z,12.18
2022-09-15T02:58:11.263Z,12.16
2022-09-15T02:58:43.685Z,12.15
2022-09-15T02:59:15.563Z,12.14
2022-09-15T03:00:06.037Z,12.18
2022-09-15T03:00:38.614Z,12.13
2022-09-15T03:01:15.674Z,12.15
2022-09-15T03:01:47.639Z,12.16
2022-09-15T03:02:20.638Z,12.14
2022-09-15T03:02:54.554Z,12.14
2022-09-15T03:03:26.248Z,12.16
2022-09-15T03:03:58.952Z,12.14
2022-09-15T03:04:30.607Z,12.12
2022-09-15T03:05:02.197Z,12.12
2022-09-15T03:05:33.926Z,12.13
2022-09-15T03:06:18.176Z,12.13
2022-09-15T03:06:49.856Z,12.10
2022-09-15T03:07:21.749Z,12.05
2022-09-15T03:07:54.471Z,12.02
2022-09-15T03:08:28.032Z,12.02
2022-09-15T03:09:05.127Z,12.06
2022-09-15T03:09:37.445Z,12.02
2022-09-15T03:10:10.759Z,12.04
2022-09-15T03:10:42.356Z,12.06
2022-09-15T03:11:15.660Z,12.04
2022-09-15T03:11:47.378Z,12.06
2022-09-15T03:12:19.164Z,12.07
2022-09-15T03:12:55.404Z,12.03
2022-09-15T03:13:27.079Z,12.05
2022-09-15T03:14:01.188Z,12.03
2022-09-15T03:14:32.930Z,12.00
2022-09-15T03:15:05.735Z,12.02
2022-09-15T03:15:37.686Z,11.99
2022-09-15T03:16:14.038Z,12.01
2022-09-15T03:16:45.884Z,12.01
2022-09-15T03:17:18.399Z,12.03
2022-09-15T03:17:50.619Z,12.00
2022-09-15T03:18:22.224Z,11.98
2022-09-15T03:18:55.685Z,12.01
2022-09-15T03:19:27.490Z,12.01
2022-09-15T03:19:59.710Z,11.99
2022-09-15T03:20:31.509Z,11.98
2022-09-15T03:21:03.895Z,11.98
2022-09-15T03:21:36.336Z,12.01
2022-09-15T03:22:09.483Z,12.03
2022-09-15T03:22:41.340Z,11.97
2022-09-15T03:23:13.020Z,11.93
2022-09-15T03:23:45.334Z,11.97
2022-09-15T03:24:18.956Z,11.96
2022-09-15T03:24:51.859Z,11.96
2022-09-15T03:25:27.065Z,11.98
2022-09-15T03:25:59.558Z,12.00
2022-09-15T03:26:31.251Z,11.98
2022-09-15T03:27:03.027Z,12.00
2022-09-15T03:27:35.637Z,12.01
2022-09-15T03:28:07.359Z,12.01
2022-09-15T03:28:39.569Z,12.01
2022-09-15T03:29:11.233Z,12.00
2022-09-15T03:29:42.947Z,12.01
2022-09-15T03:30:15.114Z,12.00
2022-09-15T03:30:48.168Z,11.96
2022-09-15T03:31:20.005Z,11.93
2022-09-15T03:31:51.762Z,11.91
2022-09-15T03:32:23.764Z,11.91
2022-09-15T03:32:55.433Z,11.91
2022-09-15T03:33:27.252Z,11.91
2022-09-15T03:33:59.056Z,11.91
2022-09-15T03:34:31.839Z,11.93
2022-09-15T03:35:04.757Z,11.91
2022-09-15T03:35:38.786Z,11.92
2022-09-15T03:36:10.478Z,11.95
2022-09-15T03:36:42.331Z,11.94
2022-09-15T03:37:14.029Z,11.94
2022-09-15T03:37:45.961Z,11.95
2022-09-15T03:38:18.831Z,11.93
2022-09-15T03:38:50.576Z,11.98
2022-09-15T03:39:22.459Z,12.00
2022-09-15T03:39:54.159Z,11.98
2022-09-15T03:40:25.933Z,11.97
2022-09-15T03:41:02.864Z,11.98
2022-09-15T03:41:34.725Z,11.98
2022-09-15T03:42:06.506Z,12.00
2022-09-15T03:42:38.314Z,11.99
2022-09-15T03:43:14.265Z,11.99
2022-09-15T03:43:48.450Z,11.98
2022-09-15T03:44:20.112Z,11.95
2022-09-15T03:44:51.733Z,11.93
2022-09-15T03:45:23.461Z,11.93
2022-09-15T03:45:56.145Z,11.93
2022-09-15T03:46:27.985Z,11.92
2022-09-15T03:46:59.763Z,11.92
2022-09-15T03:47:32.364Z,11.92
2022-09-15T03:48:07.862Z,11.93
2022-09-15T03:48:40.584Z,11.93
2022-09-15T03:49:12.657Z,11.96
2022-09-15T03:49:44.299Z,11.96
2022-09-15T03:50:16.066Z,11.96
2022-09-15T03:50:47.943Z,12.01
2022-09-15T03:51:19.712Z,11.97
2022-09-15T03:51:51.975Z,11.98
2022-09-15T03:52:23.639Z,11.96
2022-09-15T03:52:58.755Z,11.95
2022-09-15T03:53:35.217Z,11.94
2022-09-15T03:54:07.562Z,11.94
2022-09-15T03:54:40.093Z,12.11
2022-09-15T03:55:13.016Z,12.13
2022-09-15T03:55:45.639Z,12.07
2022-09-15T03:56:26.754Z,12.02
2022-09-15T03:56:58.972Z,11.98
2022-09-15T03:57:30.641Z,11.99
2022-09-15T03:58:02.478Z,11.98
2022-09-15T03:58:34.215Z,11.99
2022-09-15T03:59:06.221Z,11.95
2022-09-15T03:59:37.988Z,11.96
2022-09-15T04:00:10.243Z,11.93
2022-09-15T04:00:42.004Z,11.90
2022-09-15T04:01:13.710Z,11.91
2022-09-15T04:01:46.018Z,11.90
2022-09-15T04:02:17.775Z,11.89
2022-09-15T04:02:49.503Z,11.89
2022-09-15T04:03:21.666Z,11.86
2022-09-15T04:03:53.484Z,11.86
2022-09-15T04:04:25.140Z,11.84
2022-09-15T04:04:56.961Z,11.84
2022-09-15T04:05:28.961Z,11.84
2022-09-15T04:06:00.688Z,11.81
2022-09-15T04:06:32.467Z,11.81
2022-09-15T04:07:04.078Z,11.84
2022-09-15T04:07:35.761Z,11.82
2022-09-15T04:08:07.521Z,11.81
2022-09-15T04:08:39.433Z,11.80
2022-09-15T04:09:11.132Z,11.79
2022-09-15T04:09:42.844Z,11.78
2022-09-15T04:10:15.072Z,11.79
2022-09-15T04:10:46.727Z,11.84
2022-09-15T04:11:21.628Z,11.89
2022-09-15T04:11:53.272Z,11.85
2022-09-15T04:12:24.919Z,11.84
2022-09-15T04:12:57.150Z,11.83
2022-09-15T04:13:28.915Z,11.81
2022-09-15T04:14:00.695Z,11.80
2022-09-15T04:14:32.317Z,11.76
2022-09-15T04:15:04.583Z,11.81
2022-09-15T04:15:36.488Z,11.78
2022-09-15T04:16:10.678Z,11.82
2022-09-15T04:16:42.446Z,11.79
2022-09-15T04:17:15.591Z,11.81
2022-09-15T04:17:47.755Z,11.80
2022-09-15T04:18:19.351Z,11.77
2022-09-15T04:18:52.881Z,11.78
2022-09-15T04:19:24.653Z,11.83
2022-09-15T04:19:56.447Z,11.83
2022-09-15T04:20:28.223Z,11.83
2022-09-15T04:21:05.944Z,11.87
2022-09-15T04:21:37.599Z,11.84
2022-09-15T04:22:13.203Z,11.83
2022-09-15T04:22:47.356Z,11.84
2022-09-15T04:23:19.044Z,11.87
2022-09-15T04:23:54.049Z,11.86
2022-09-15T04:24:25.649Z,11.88
2022-09-15T04:24:57.963Z,11.88
2022-09-15T04:25:29.622Z,11.92
2022-09-15T04:26:03.587Z,11.92
2022-09-15T04:26:36.886Z,11.90
2022-09-15T04:27:10.996Z,11.91
2022-09-15T04:27:42.925Z,11.93
2022-09-15T04:28:14.828Z,11.95
2022-09-15T04:28:46.496Z,11.94
2022-09-15T04:29:18.847Z,11.94
2022-09-15T04:29:52.234Z,11.93
2022-09-15T04:30:24.180Z,11.93
2022-09-15T04:31:08.025Z,11.93
2022-09-15T04:31:39.967Z,11.94
2022-09-15T04:32:11.659Z,11.95
2022-09-15T04:32:43.294Z,11.97
2022-09-15T04:33:15.073Z,11.94
2022-09-15T04:33:47.747Z,11.94
2022-09-15T04:34:19.406Z,11.95
2022-09-15T04:34:51.076Z,11.96
2022-09-15T04:35:23.025Z,12.01
2022-09-15T04:36:08.075Z,12.02
2022-09-15T04:36:39.701Z,12.03
2022-09-15T04:37:11.477Z,12.03
2022-09-15T04:37:43.070Z,12.03
2022-09-15T04:38:14.820Z,12.05
2022-09-15T04:38:47.357Z,12.06
2022-09-15T04:39:19.810Z,12.07
2022-09-15T04:39:51.498Z,12.06
2022-09-15T04:40:23.268Z,12.05
2022-09-15T04:40:56.330Z,12.07
2022-09-15T04:41:28.577Z,12.12
2022-09-15T04:42:00.624Z,12.07
2022-09-15T04:42:32.294Z,12.10
2022-09-15T04:43:04.620Z,12.11
2022-09-15T04:43:36.579Z,12.14
2022-09-15T04:44:08.749Z,12.12
2022-09-15T04:44:40.449Z,12.11
2022-09-15T04:45:12.327Z,12.12
2022-09-15T04:45:44.073Z,12.13
2022-09-15T04:46:16.795Z,12.17
2022-09-15T04:46:48.919Z,12.29
2022-09-15T04:47:20.799Z,12.30
2022-09-15T04:47:53.402Z,12.24
2022-09-15T04:48:25.778Z,12.21
2022-09-15T04:48:57.439Z,12.21
2022-09-15T04:49:29.094Z,12.19
2022-09-15T04:50:00.710Z,12.17
2022-09-15T04:50:32.474Z,12.17
2022-09-15T04:51:13.847Z,12.18
2022-09-15T04:51:45.501Z,12.17
2022-09-15T04:52:19.537Z,12.14
2022-09-15T04:52:52.143Z,12.10
2022-09-15T04:53:23.841Z,12.07
2022-09-15T04:53:55.693Z,12.03
2022-09-15T04:54:27.302Z,12.01
2022-09-15T04:54:59.032Z,11.98
2022-09-15T04:55:32.151Z,11.97
2022-09-15T04:56:05.920Z,11.95
2022-09-15T04:56:38.611Z,11.95
2022-09-15T04:57:10.766Z,11.94
2022-09-15T04:57:42.419Z,11.93
2022-09-15T04:58:14.362Z,11.92
2022-09-15T04:58:54.087Z,11.92
2022-09-15T04:59:25.753Z,11.92
2022-09-15T04:59:57.337Z,11.92
2022-09-15T05:00:30.600Z,11.96
2022-09-15T05:01:10.842Z,11.99
2022-09-15T05:01:43.095Z,11.99
2022-09-15T05:02:14.822Z,12.01
2022-09-15T05:02:46.479Z,12.06
2022-09-15T05:03:18.114Z,12.12
2022-09-15T05:03:51.035Z,12.09
2022-09-15T05:04:22.805Z,12.10
2022-09-15T05:04:54.675Z,12.13
2022-09-15T05:05:27.047Z,12.12
2022-09-15T05:05:58.798Z,12.11
2022-09-15T05:06:30.547Z,12.08
2022-09-15T05:07:02.457Z,12.10
2022-09-15T05:07:34.084Z,12.09
2022-09-15T05:08:06.166Z,12.11
2022-09-15T05:08:38.550Z,12.12
2022-09-15T05:09:13.195Z,12.10
2022-09-15T05:09:44.883Z,12.11
2022-09-15T05:10:16.686Z,12.19
2022-09-15T05:10:48.300Z,12.17
2022-09-15T05:11:20.320Z,12.14
2022-09-15T05:11:51.930Z,12.14
2022-09-15T05:12:23.556Z,12.15
2022-09-15T05:12:55.309Z,12.12
2022-09-15T05:13:27.229Z,12.10
2022-09-15T05:14:00.127Z,12.16
2022-09-15T05:14:32.306Z,12.13
2022-09-15T05:15:04.548Z,12.10
2022-09-15T05:15:36.299Z,12.11
2022-09-15T05:16:09.951Z,12.15
2022-09-15T05:16:41.813Z,12.13
2022-09-15T05:17:13.472Z,12.12
2022-09-15T05:17:45.228Z,12.14
2022-09-15T05:18:16.832Z,12.14
2022-09-15T05:18:49.679Z,12.14
2022-09-15T05:19:21.388Z,12.11
2022-09-15T05:19:53.039Z,12.18
2022-09-15T05:20:24.653Z,12.26
2022-09-15T05:21:03.328Z,12.20
2022-09-15T05:21:35.152Z,12.17
2022-09-15T05:22:07.153Z,12.13
2022-09-15T05:22:41.830Z,12.13
2022-09-15T05:23:14.096Z,12.14
2022-09-15T05:23:46.448Z,12.14
2022-09-15T05:24:18.131Z,12.15
2022-09-15T05:24:49.766Z,12.20
2022-09-15T05:25:21.561Z,12.20
2022-09-15T05:26:00.580Z,12.26
2022-09-15T05:26:32.567Z,12.23
2022-09-15T05:27:04.481Z,12.22
2022-09-15T05:27:36.350Z,12.23
2022-09-15T05:28:08.068Z,12.20
2022-09-15T05:28:39.992Z,12.19
2022-09-15T05:29:11.647Z,12.26
2022-09-15T05:29:43.327Z,12.32
2022-09-15T05:30:36.678Z,12.33
2022-09-15T05:31:13.659Z,12.34
2022-09-15T05:31:45.355Z,12.34
2022-09-15T05:32:17.015Z,12.36
2022-09-15T05:32:48.687Z,12.30
2022-09-15T05:33:22.105Z,12.29
2022-09-15T05:33:54.370Z,12.34
2022-09-15T05:34:25.985Z,12.44
2022-09-15T05:34:58.122Z,12.38
2022-09-15T05:35:29.792Z,12.38
2022-09-15T05:36:01.632Z,12.39
2022-09-15T05:36:33.842Z,12.36
2022-09-15T05:37:05.683Z,12.34
2022-09-15T05:37:37.471Z,12.41
2022-09-15T05:38:09.557Z,12.35
2022-09-15T05:38:41.455Z,12.37
2022-09-15T05:39:13.277Z,12.41
2022-09-15T05:39:44.967Z,12.40
2022-09-15T05:40:16.863Z,12.39
2022-09-15T05:40:49.047Z,12.46
2022-09-15T05:41:21.071Z,12.37
2022-09-15T05:41:52.723Z,12.42
2022-09-15T05:42:24.350Z,12.45
2022-09-15T05:42:55.986Z,12.43
2022-09-15T05:43:30.907Z,12.42
2022-09-15T05:44:03.008Z,12.44
2022-09-15T05:44:35.096Z,12.41
2022-09-15T05:45:07.627Z,12.38
2022-09-15T05:45:41.707Z,12.37
2022-09-15T05:46:14.484Z,12.38
2022-09-15T05:46:46.170Z,12.37
2022-09-15T05:47:17.864Z,12.35
2022-09-15T05:47:50.335Z,12.35
2022-09-15T05:48:22.380Z,12.37
2022-09-15T05:48:55.920Z,12.36
2022-09-15T05:49:29.505Z,12.40
2022-09-15T05:50:01.350Z,12.41
2022-09-15T05:50:33.200Z,12.41
2022-09-15T05:51:05.413Z,12.43
2022-09-15T05:51:37.150Z,12.41
2022-09-15T05:52:08.830Z,12.40
2022-09-15T05:52:40.485Z,12.41
2022-09-15T05:53:12.090Z,12.43
2022-09-15T05:53:43.684Z,12.42
2022-09-15T05:54:15.332Z,12.44
2022-09-15T05:54:47.494Z,12.45
2022-09-15T05:55:19.169Z,12.47
2022-09-15T05:55:58.285Z,12.47
2022-09-15T05:56:29.988Z,12.46
2022-09-15T05:57:01.708Z,12.46
2022-09-15T05:57:33.401Z,12.50
2022-09-15T05:58:05.290Z,12.45
2022-09-15T05:58:39.603Z,12.44
2022-09-15T05:59:11.253Z,12.45
2022-09-15T05:59:43.979Z,12.48
2022-09-15T06:00:15.861Z,12.48
2022-09-15T06:00:47.458Z,12.48
2022-09-15T06:01:21.407Z,12.52
2022-09-15T06:01:53.062Z,12.54
2022-09-15T06:02:24.811Z,12.54
2022-09-15T06:02:56.581Z,12.56
2022-09-15T06:03:30.949Z,12.59
2022-09-15T06:04:02.951Z,12.60
2022-09-15T06:04:34.883Z,12.63
2022-09-15T06:05:06.870Z,12.64
2022-09-15T06:05:38.484Z,12.62
2022-09-15T06:06:10.581Z,12.60
2022-09-15T06:06:42.376Z,12.61
2022-09-15T06:07:14.185Z,12.63
2022-09-15T06:07:45.792Z,12.62
2022-09-15T06:08:17.476Z,12.63
2022-09-15T06:08:56.854Z,12.65
2022-09-15T06:09:29.546Z,12.64
2022-09-15T06:10:01.184Z,12.64
2022-09-15T06:10:33.251Z,12.69
2022-09-15T06:11:10.240Z,12.75
2022-09-15T06:11:41.827Z,12.77
2022-09-15T06:12:14.275Z,12.75
2022-09-15T06:12:46.045Z,12.79
2022-09-15T06:13:17.882Z,12.79
2022-09-15T06:13:50.460Z,12.84
2022-09-15T06:14:22.110Z,12.84
2022-09-15T06:14:53.935Z,12.84
2022-09-15T06:15:25.887Z,12.88
2022-09-15T06:16:01.947Z,12.86
2022-09-15T06:16:35.003Z,12.90
2022-09-15T06:17:06.715Z,12.90
2022-09-15T06:17:38.352Z,12.91
2022-09-15T06:18:09.934Z,12.94
2022-09-15T06:18:42.037Z,12.94
2022-09-15T06:19:14.044Z,12.94
2022-09-15T06:19:45.882Z,12.96
2022-09-15T06:20:18.853Z,12.96
2022-09-15T06:20:50.471Z,12.97
2022-09-15T06:21:24.576Z,13.00
2022-09-15T06:21:56.299Z,13.02
2022-09-15T06:22:28.374Z,13.02
2022-09-15T06:23:00.331Z,13.07
2022-09-15T06:23:32.492Z,13.09
2022-09-15T06:24:07.408Z,13.07
2022-09-15T06:24:39.103Z,13.06
2022-09-15T06:25:11.827Z,13.10
2022-09-15T06:25:44.445Z,13.10
2022-09-15T06:26:18.680Z,13.11
2022-09-15T06:26:50.453Z,13.15
2022-09-15T06:27:22.525Z,13.16
2022-09-15T06:27:54.799Z,13.17
2022-09-15T06:28:26.422Z,13.20
2022-09-15T06:29:00.641Z,13.19
2022-09-15T06:29:32.594Z,13.18
2022-09-15T06:30:04.585Z,13.20
2022-09-15T06:30:39.498Z,13.18
2022-09-15T06:31:13.244Z,13.22
2022-09-15T06:31:44.876Z,13.24
2022-09-15T06:32:16.783Z,13.27
2022-09-15T06:32:49.201Z,13.28
2022-09-15T06:33:20.965Z,13.32
2022-09-15T06:33:54.167Z,13.36
2022-09-15T06:34:26.197Z,13.44
2022-09-15T06:34:57.944Z,13.40
2022-09-15T06:35:29.690Z,13.40
2022-09-15T06:36:02.760Z,13.39
2022-09-15T06:36:36.627Z,13.43
2022-09-15T06:37:08.442Z,13.47
2022-09-15T06:37:40.168Z,13.55
2022-09-15T06:38:12.042Z,13.57
2022-09-15T06:38:44.452Z,13.62
2022-09-15T06:39:16.164Z,13.65
2022-09-15T06:39:47.852Z,13.66
2022-09-15T06:40:19.595Z,13.69
2022-09-15T06:40:58.040Z,13.76
2022-09-15T06:41:47.081Z,13.76
2022-09-15T06:42:22.739Z,13.82
2022-09-15T06:42:57.246Z,13.85
2022-09-15T06:43:30.874Z,13.91
2022-09-15T06:44:02.856Z,13.91
2022-09-15T06:44:34.586Z,13.90
2022-09-15T06:45:06.823Z,13.97
2022-09-15T06:45:38.429Z,13.96
2022-09-15T06:46:13.130Z,14.00
2022-09-15T06:46:44.799Z,14.01
2022-09-15T06:47:16.714Z,14.03
2022-09-15T06:48:02.081Z,14.04
2022-09-15T06:48:42.250Z,14.00
2022-09-15T06:49:15.198Z,13.97
2022-09-15T06:49:49.337Z,14.00
2022-09-15T06:50:21.790Z,13.97
2022-09-15T06:50:54.977Z,13.99
2022-09-15T06:51:28.816Z,14.04
2022-09-15T06:52:02.534Z,14.04
2022-09-15T06:52:34.329Z,14.09
2022-09-15T06:53:05.911Z,14.08
2022-09-15T06:53:38.358Z,14.09
2022-09-15T06:54:09.938Z,14.10
2022-09-15T06:54:41.548Z,14.17
2022-09-15T06:55:13.287Z,14.15
2022-09-15T06:55:44.932Z,14.16
2022-09-15T06:56:20.807Z,14.18
2022-09-15T06:56:52.693Z,14.19
2022-09-15T06:57:24.357Z,14.17
2022-09-15T06:57:56.146Z,14.20
2022-09-15T06:58:27.724Z,14.19
2022-09-15T06:59:00.149Z,14.19
2022-09-15T06:59:32.115Z,14.22
2022-09-15T07:00:05.348Z,14.25
2022-09-15T07:00:37.097Z,14.21
2022-09-15T07:01:33.116Z,14.27
2022-09-15T07:02:05.443Z,14.31
2022-09-15T07:02:37.862Z,14.30
2022-09-15T07:03:09.857Z,14.29
2022-09-15T07:03:44.067Z,14.30
2022-09-15T07:04:15.846Z,14.30
2022-09-15T07:04:47.801Z,14.34
2022-09-15T07:05:19.442Z,14.34
2022-09-15T07:05:51.244Z,14.35
2022-09-15T07:06:23.320Z,14.39
2022-09-15T07:06:55.192Z,14.42
2022-09-15T07:07:27.684Z,14.43
2022-09-15T07:07:59.701Z,14.49
2022-09-15T07:08:31.475Z,14.51
2022-09-15T07:09:04.112Z,14.57
2022-09-15T07:09:38.799Z,14.62
2022-09-15T07:10:12.694Z,14.63
2022-09-15T07:10:45.168Z,14.72
2022-09-15T07:11:18.238Z,14.71
2022-09-15T07:11:49.897Z,14.78
2022-09-15T07:12:21.606Z,14.79
2022-09-15T07:12:53.266Z,14.78
2022-09-15T07:13:25.392Z,14.79
2022-09-15T07:13:57.412Z,14.87
2022-09-15T07:14:29.405Z,14.90
2022-09-15T07:15:01.103Z,14.87
2022-09-15T07:15:32.846Z,14.86
2022-09-15T07:16:07.450Z,14.80
2022-09-15T07:16:39.438Z,14.71
2022-09-15T07:17:11.251Z,14.68
2022-09-15T07:17:43.119Z,14.69
2022-09-15T07:18:14.746Z,14.72
2022-09-15T07:18:47.250Z,14.74
2022-09-15T07:19:18.887Z,14.79
2022-09-15T07:19:50.580Z,14.79
2022-09-15T07:20:22.895Z,14.83
2022-09-15T07:21:08.793Z,14.82